Time;durP1;ratioP1;P1;durP2;ratioP2;P2;SDS_P1;SDS_P2;PMS_P1;PMS_P2;Temp;Humidity;BMP_temperature;BMP_pressure;BME280_temperature;BME280_humidity;BME280_pressure;Samples;Min_cycle;Max_cycle;Signal;HPM_P1;HPM_P2
2023/09/11 00:00:21;;;;;;;2.92;1.52;;;;;;;20.55;52.57;99718.25;4462174;32;34118;-78
2023/09/11 00:02:50;;;;;;;3.85;1.62;;;;;;;20.55;52.59;99727.91;4464582;32;34111;-79
2023/09/11 00:05:19;;;;;;;3.08;1.87;;;;;;;20.48;53.00;99726.53;4476949;32;33606;-78
2023/09/11 00:07:49;;;;;;;4.30;1.55;;;;;;;20.71;52.25;99720.91;4483357;32;33583;-78
2023/09/11 00:10:18;;;;;;;2.67;1.40;;;;;;;20.77;52.11;99715.28;4468035;32;33494;-79
2023/09/11 00:12:47;;;;;;;2.85;1.25;;;;;;;20.60;52.60;99710.94;4462998;32;34434;-78
2023/09/11 00:15:15;;;;;;;2.37;1.23;;;;;;;20.72;52.27;99709.41;4466541;32;33365;-78
2023/09/11 00:17:44;;;;;;;2.03;1.50;;;;;;;20.62;52.61;99708.22;4483169;32;34539;-77
2023/09/11 00:20:13;;;;;;;3.20;1.40;;;;;;;20.73;52.29;99710.25;4476592;32;34848;-77
2023/09/11 00:22:42;;;;;;;2.65;1.62;;;;;;;20.75;52.37;99717.16;4470310;32;34512;-79
2023/09/11 00:25:12;;;;;;;4.30;1.65;;;;;;;20.69;52.36;99711.37;4462077;32;33156;-78
2023/09/11 00:27:41;;;;;;;2.13;1.53;;;;;;;20.57;52.54;99707.62;4462215;32;33418;-79
2023/09/11 00:30:11;;;;;;;2.05;1.15;;;;;;;20.60;52.70;99708.31;4475739;32;33516;-79
2023/09/11 00:32:41;;;;;;;2.67;1.40;;;;;;;20.62;52.47;99702.97;4477236;32;34896;-78
2023/09/11 00:35:10;;;;;;;1.65;1.00;;;;;;;20.24;53.39;99711.09;4477153;32;33743;-79
2023/09/11 00:37:39;;;;;;;3.15;1.37;;;;;;;20.42;52.64;99711.91;4476138;32;34677;-79
2023/09/11 00:40:09;;;;;;;2.58;1.50;;;;;;;20.74;51.94;99704.06;4482507;32;34882;-77
2023/09/11 00:42:39;;;;;;;2.62;1.12;;;;;;;20.78;51.89;99705.59;4478046;32;34170;-78
2023/09/11 00:45:08;;;;;;;2.17;1.33;;;;;;;20.79;52.07;99709.94;4477227;32;33705;-77
2023/09/11 00:47:37;;;;;;;1.80;1.10;;;;;;;20.84;51.95;99700.00;4475399;32;34536;-78
2023/09/11 00:50:09;;;;;;;3.70;1.27;;;;;;;20.72;52.44;99695.41;4483174;32;33736;-79
2023/09/11 00:52:40;;;;;;;3.35;1.60;;;;;;;20.61;52.57;99695.97;4482921;32;34029;-78
2023/09/11 00:55:10;;;;;;;3.58;1.90;;;;;;;20.76;52.08;99699.56;4476530;32;33243;-78
2023/09/11 00:57:40;;;;;;;2.58;1.30;;;;;;;20.64;52.32;99693.19;4477432;32;33499;-79
2023/09/11 01:00:10;;;;;;;3.43;1.67;;;;;;;20.37;53.16;99695.47;4477421;32;33674;-78
2023/09/11 01:02:39;;;;;;;3.90;1.62;;;;;;;20.65;52.42;99695.72;4468076;32;33774;-79
2023/09/11 01:05:09;;;;;;;2.00;1.15;;;;;;;20.45;52.83;99693.28;4462247;32;33293;-78
2023/09/11 01:07:38;;;;;;;2.00;1.20;;;;;;;20.58;52.44;99690.88;4477602;32;33847;-78
2023/09/11 01:10:09;;;;;;;1.87;1.23;;;;;;;20.64;52.50;99693.19;4477414;32;34432;-78
2023/09/11 01:12:40;;;;;;;4.03;1.73;;;;;;;20.48;52.91;99700.19;4481360;32;34100;-79
2023/09/11 01:15:10;;;;;;;1.83;1.42;;;;;;;20.33;53.56;99702.69;4482618;32;33494;-79
2023/09/11 01:17:43;;;;;;;3.03;1.48;;;;;;;20.44;53.26;99696.84;4477179;32;33692;-77
2023/09/11 01:20:38;;;;;;;4.53;1.40;;;;;;;20.30;53.98;99699.41;4477095;32;34570;-79
2023/09/11 01:23:38;;;;;;;2.67;1.50;;;;;;;20.44;53.67;99695.09;4477280;32;33923;-78
2023/09/11 01:26:18;;;;;;;3.83;1.67;;;;;;;20.52;53.32;99699.09;4473750;31;33853;-78
2023/09/11 01:29:11;;;;;;;3.55;1.33;;;;;;;20.33;53.51;99697.44;4477049;32;33801;-79
2023/09/11 01:31:44;;;;;;;2.08;1.23;;;;;;;20.16;54.13;99698.31;4479622;31;33908;-78
2023/09/11 01:34:13;;;;;;;3.42;1.73;;;;;;;20.29;53.91;99695.87;4477370;32;34081;-78
2023/09/11 01:36:42;;;;;;;3.45;1.52;;;;;;;20.32;53.54;99694.88;4476894;32;33405;-78
2023/09/11 01:39:11;;;;;;;2.30;1.45;;;;;;;20.31;53.50;99686.13;4477838;32;34388;-78
2023/09/11 01:41:41;;;;;;;2.50;1.67;;;;;;;20.12;54.28;99688.87;4476970;32;33656;-79
2023/09/11 01:44:18;;;;;;;2.60;1.40;;;;;;;20.05;54.49;99687.50;4482933;32;33731;-80
2023/09/11 01:46:48;;;;;;;3.78;1.73;;;;;;;20.15;54.40;99691.38;4474448;32;33260;-77
2023/09/11 01:49:18;;;;;;;3.57;1.50;;;;;;;20.04;54.66;99694.56;4477021;32;34162;-78
2023/09/11 01:51:47;;;;;;;1.98;1.15;;;;;;;20.02;54.76;99690.28;4476886;32;33094;-78
2023/09/11 01:54:16;;;;;;;3.45;1.87;;;;;;;19.99;54.70;99690.47;4482621;32;34835;-78
2023/09/11 01:56:45;;;;;;;2.12;1.35;;;;;;;19.95;55.00;99684.50;4476532;32;34174;-79
2023/09/11 01:59:15;;;;;;;3.00;1.50;;;;;;;19.89;55.28;99689.25;4461109;32;32092;-77
2023/09/11 02:01:45;;;;;;;3.62;1.70;;;;;;;19.83;55.56;99687.75;4468940;32;35341;-77
2023/09/11 02:04:14;;;;;;;2.97;1.62;;;;;;;19.90;55.54;99690.94;4473649;32;34024;-77
2023/09/11 02:06:43;;;;;;;3.83;2.17;;;;;;;19.90;55.37;99689.16;4472386;32;33237;-79
2023/09/11 02:09:12;;;;;;;3.05;1.83;;;;;;;19.88;55.69;99691.00;4468580;32;33601;-79
2023/09/11 02:11:41;;;;;;;4.00;1.75;;;;;;;19.92;55.55;99687.28;4460433;32;33770;-78
2023/09/11 02:14:10;;;;;;;3.95;2.00;;;;;;;19.78;55.76;99692.41;4460527;32;33963;-79
2023/09/11 02:16:40;;;;;;;3.42;1.33;;;;;;;19.80;55.94;99691.41;4466085;32;34684;-78
2023/09/11 02:19:09;;;;;;;2.72;1.40;;;;;;;19.56;56.47;99687.34;4460216;32;35454;-78
2023/09/11 02:21:37;;;;;;;3.28;1.48;;;;;;;19.71;56.17;99683.13;4462408;32;33805;-79
2023/09/11 02:24:07;;;;;;;4.40;1.60;;;;;;;19.51;56.99;99692.00;4471385;32;34514;-78
2023/09/11 02:26:35;;;;;;;2.33;1.40;;;;;;;19.78;56.35;99689.78;4481145;32;33400;-79
2023/09/11 02:29:04;;;;;;;2.75;1.48;;;;;;;19.73;56.40;99691.81;4467415;32;33598;-78
2023/09/11 02:31:33;;;;;;;2.58;1.55;;;;;;;19.70;56.47;99694.59;4474557;32;34675;-78
2023/09/11 02:34:04;;;;;;;3.75;1.70;;;;;;;19.67;56.47;99689.44;4464362;32;33918;-78
2023/09/11 02:36:32;;;;;;;4.45;2.00;;;;;;;19.65;56.43;99689.53;4460671;32;33275;-77
2023/09/11 02:39:01;;;;;;;4.35;1.33;;;;;;;19.65;56.16;99688.69;4479271;32;33897;-78
2023/09/11 02:41:30;;;;;;;2.97;1.40;;;;;;;19.62;56.27;99685.28;4461512;32;33721;-78
2023/09/11 02:43:58;;;;;;;2.40;1.75;;;;;;;19.73;55.86;99687.38;4462570;32;33861;-78
2023/09/11 02:46:28;;;;;;;2.30;1.58;;;;;;;19.57;56.55;99687.28;4465748;32;33368;-78
2023/09/11 02:48:56;;;;;;;2.45;1.37;;;;;;;19.58;56.53;99688.97;4464256;32;36295;-78
2023/09/11 02:51:28;;;;;;;2.72;1.60;;;;;;;19.63;56.36;99683.50;4460355;32;34440;-78
2023/09/11 02:53:57;;;;;;;3.87;1.90;;;;;;;19.43;56.88;99684.50;4461728;32;34635;-78
2023/09/11 02:56:26;;;;;;;4.18;1.62;;;;;;;19.57;56.56;99679.41;4459823;32;33394;-77
2023/09/11 02:58:54;;;;;;;4.72;1.85;;;;;;;19.53;56.67;99679.63;4465944;32;34597;-79
2023/09/11 03:01:23;;;;;;;3.12;1.73;;;;;;;19.59;56.59;99681.94;4481113;32;33978;-78
2023/09/11 03:03:52;;;;;;;3.60;1.98;;;;;;;19.40;57.04;99682.00;4466988;32;33710;-79
2023/09/11 03:06:21;;;;;;;2.05;1.40;;;;;;;19.53;56.82;99680.47;4471669;32;33486;-79
2023/09/11 03:08:51;;;;;;;2.87;1.62;;;;;;;19.53;56.88;99677.84;4469241;32;33602;-77
2023/09/11 03:11:21;;;;;;;3.05;1.42;;;;;;;19.28;57.65;99679.97;4470638;32;33786;-78
2023/09/11 03:13:50;;;;;;;3.10;1.63;;;;;;;19.36;57.33;99678.69;4463159;32;33301;-78
2023/09/11 03:16:19;;;;;;;3.33;1.73;;;;;;;19.17;58.03;99673.47;4459863;32;33564;-79
2023/09/11 03:18:49;;;;;;;3.00;1.48;;;;;;;19.33;57.42;99675.34;4461941;32;34324;-79
2023/09/11 03:21:19;;;;;;;3.12;1.60;;;;;;;19.26;57.60;99672.19;4463174;32;33730;-78
2023/09/11 03:23:48;;;;;;;2.75;1.37;;;;;;;19.26;57.71;99676.59;4470243;32;34229;-77
2023/09/11 03:26:19;;;;;;;2.40;1.42;;;;;;;19.15;58.10;99670.06;4476183;32;33482;-78
2023/09/11 03:28:49;;;;;;;3.58;1.87;;;;;;;19.16;58.25;99676.16;4470891;32;32868;-79
2023/09/11 03:31:19;;;;;;;3.85;1.73;;;;;;;19.23;57.94;99679.34;4468977;32;34485;-78
2023/09/11 03:33:48;;;;;;;3.12;1.40;;;;;;;19.09;58.23;99675.63;4478228;32;33678;-79
2023/09/11 03:36:17;;;;;;;2.78;1.92;;;;;;;19.17;58.21;99670.84;4459771;32;33273;-79
2023/09/11 03:38:46;;;;;;;2.87;1.65;;;;;;;19.24;57.93;99681.06;4466984;32;33229;-77
2023/09/11 03:41:15;;;;;;;3.75;1.45;;;;;;;19.19;58.17;99676.88;4470532;32;33819;-78
2023/09/11 03:43:45;;;;;;;1.77;1.35;;;;;;;19.23;58.08;99672.31;4473942;32;36159;-79
2023/09/11 03:46:15;;;;;;;2.35;1.37;;;;;;;19.31;57.77;99669.31;4470023;32;34474;-78
2023/09/11 03:48:44;;;;;;;3.75;1.92;;;;;;;19.25;57.92;99669.62;4470800;32;33450;-78
2023/09/11 03:51:14;;;;;;;2.67;1.58;;;;;;;19.38;57.48;99676.00;4460019;32;34069;-78
2023/09/11 03:53:44;;;;;;;2.00;1.60;;;;;;;19.35;57.83;99670.84;4464934;32;34367;-79
2023/09/11 03:56:13;;;;;;;2.53;1.70;;;;;;;19.42;57.53;99666.16;4479354;32;33166;-79
2023/09/11 03:58:44;;;;;;;2.67;1.40;;;;;;;19.35;57.69;99670.84;4467065;32;34334;-79
2023/09/11 04:01:16;;;;;;;2.25;1.45;;;;;;;19.23;58.16;99666.19;4466280;32;33539;-79
2023/09/11 04:03:45;;;;;;;1.87;1.30;;;;;;;19.26;58.06;99666.06;4458896;32;34826;-79
2023/09/11 04:06:14;;;;;;;3.70;1.87;;;;;;;19.27;58.13;99667.75;4478042;32;33693;-78
2023/09/11 04:08:48;;;;;;;4.90;2.17;;;;;;;19.13;58.47;99665.81;4463486;32;35342;-77
2023/09/11 04:11:19;;;;;;;4.32;1.90;;;;;;;19.29;57.69;99663.28;4470694;32;33631;-79
2023/09/11 04:13:50;;;;;;;3.25;1.45;;;;;;;19.32;57.79;99660.50;4463075;32;33865;-79
2023/09/11 04:16:21;;;;;;;2.10;1.25;;;;;;;19.15;58.10;99650.81;4462271;32;34446;-79
2023/09/11 04:18:50;;;;;;;;;;;;;;;19.16;58.30;99663.00;4472626;32;33950;-79
2023/09/11 04:21:19;;;;;;;3.20;1.90;;;;;;;19.28;57.88;99651.91;4472473;32;34991;-78
2023/09/11 04:23:48;;;;;;;2.78;1.77;;;;;;;19.12;58.22;99657.06;4463820;32;34004;-78
2023/09/11 04:26:17;;;;;;;2.62;1.52;;;;;;;19.24;58.02;99653.00;4471317;32;34296;-79
2023/09/11 04:28:47;;;;;;;5.18;2.20;;;;;;;19.17;58.37;99652.44;4465602;32;33582;-78
2023/09/11 04:31:15;;;;;;;2.33;1.55;;;;;;;19.28;58.04;99656.31;4474559;32;35307;-79
2023/09/11 04:33:45;;;;;;;2.83;1.50;;;;;;;19.21;58.24;99657.53;4462947;32;34793;-78
2023/09/11 04:36:15;;;;;;;2.33;1.50;;;;;;;19.27;58.16;99651.97;4464660;32;32749;-79
2023/09/11 04:38:43;;;;;;;4.37;1.83;;;;;;;19.16;58.67;99647.25;4466233;32;34551;-78
2023/09/11 04:41:14;;;;;;;2.60;1.20;;;;;;;19.23;58.61;99653.91;4472205;32;33992;-77
2023/09/11 04:43:43;;;;;;;3.53;1.77;;;;;;;19.15;58.96;99653.44;4465638;32;33530;-79
2023/09/11 04:46:12;;;;;;;3.50;1.73;;;;;;;19.50;57.73;99643.78;4472635;32;33337;-77
2023/09/11 04:48:40;;;;;;;3.97;2.25;;;;;;;19.46;57.96;99644.88;4471537;32;33827;-77
2023/09/11 04:51:12;;;;;;;3.78;1.73;;;;;;;19.34;58.63;99648.13;4471195;32;33852;-79
2023/09/11 04:53:40;;;;;;;3.08;1.70;;;;;;;19.27;58.72;99647.56;4463907;32;33170;-77
2023/09/11 04:56:13;;;;;;;3.15;1.45;;;;;;;19.48;58.12;99648.28;4467734;32;34136;-78
2023/09/11 04:58:42;;;;;;;2.62;1.42;;;;;;;19.55;57.95;99643.56;4474457;32;33801;-79
2023/09/11 05:01:11;;;;;;;2.25;1.52;;;;;;;19.55;57.91;99649.66;4464901;32;33552;-77
2023/09/11 05:03:40;;;;;;;2.97;1.55;;;;;;;19.59;57.22;99648.56;4470480;32;34114;-77
2023/09/11 05:06:09;;;;;;;3.67;1.62;;;;;;;19.54;57.44;99647.94;4464180;32;34324;-77
2023/09/11 05:08:40;;;;;;;1.60;1.20;;;;;;;19.67;56.85;99647.31;4465867;32;33793;-78
2023/09/11 05:11:29;;;;;;;3.45;1.65;;;;;;;19.74;56.88;99633.81;4462263;31;34437;-77
2023/09/11 05:13:59;;;;;;;2.35;1.58;;;;;;;19.62;57.70;99650.22;4480457;31;33728;-79
2023/09/11 05:16:28;;;;;;;2.67;1.55;;;;;;;19.73;57.29;99644.44;4480158;32;34726;-78
2023/09/11 05:18:56;;;;;;;3.00;1.62;;;;;;;19.87;57.22;99646.34;4480166;31;33472;-79
2023/09/11 05:21:26;;;;;;;2.80;1.65;;;;;;;19.86;57.33;99649.87;4468843;32;33552;-79
2023/09/11 05:23:56;;;;;;;8.32;2.50;;;;;;;19.87;56.53;99647.19;4471919;32;32426;-78
2023/09/11 05:26:25;;;;;;;4.55;2.00;;;;;;;19.88;56.67;99648.88;4470106;32;35507;-78
2023/09/11 05:28:54;;;;;;;3.15;1.50;;;;;;;19.95;56.26;99646.78;4468910;32;33907;-79
2023/09/11 05:31:22;;;;;;;3.08;1.52;;;;;;;20.09;56.06;99646.06;4474228;31;34457;-78
2023/09/11 05:33:51;;;;;;;3.83;1.87;;;;;;;20.12;55.92;99646.72;4473278;32;34743;-79
2023/09/11 05:36:20;;;;;;;2.95;1.80;;;;;;;20.10;56.52;99645.13;4472275;31;33472;-78
2023/09/11 05:38:49;;;;;;;2.70;1.60;;;;;;;20.17;56.33;99643.84;4491711;31;33684;-78
2023/09/11 05:41:20;;;;;;;4.12;2.17;;;;;;;20.27;56.11;99646.84;4473436;31;34022;-78
2023/09/11 05:43:49;;;;;;;4.22;2.17;;;;;;;20.31;56.41;99646.59;4469345;32;34139;-77
2023/09/11 05:46:18;;;;;;;4.62;2.03;;;;;;;20.39;56.08;99641.78;4469527;31;33637;-77
2023/09/11 05:48:47;;;;;;;4.03;2.12;;;;;;;20.37;56.36;99646.28;4470663;31;34596;-78
2023/09/11 05:51:16;;;;;;;3.20;1.70;;;;;;;20.47;56.48;99649.28;4463124;32;34084;-78
2023/09/11 05:53:45;;;;;;;6.78;1.90;;;;;;;20.54;56.24;99653.28;4460083;32;34926;-78
2023/09/11 05:56:14;;;;;;;2.85;1.50;;;;;;;20.48;56.81;99650.13;4461022;32;33996;-79
2023/09/11 05:58:44;;;;;;;3.95;1.92;;;;;;;20.56;56.62;99648.81;4467010;32;33424;-78
2023/09/11 06:01:13;;;;;;;3.90;1.87;;;;;;;20.72;56.56;99646.16;4466017;32;34611;-78
2023/09/11 06:03:43;;;;;;;3.75;2.15;;;;;;;20.71;56.72;99655.00;4478675;32;35970;-78
2023/09/11 06:06:12;;;;;;;4.57;1.83;;;;;;;20.99;55.75;99654.28;4476152;32;33748;-78
2023/09/11 06:08:41;;;;;;;2.97;1.50;;;;;;;21.24;54.14;99653.75;4474771;32;34391;-78
2023/09/11 06:11:11;;;;;;;3.58;2.20;;;;;;;21.25;54.72;99644.88;4480950;32;33799;-77
2023/09/11 06:13:41;;;;;;;3.85;1.52;;;;;;;21.27;55.07;99653.56;4474734;32;33841;-77
2023/09/11 06:16:12;;;;;;;3.07;1.50;;;;;;;21.34;55.02;99650.59;4475557;32;33250;-78
2023/09/11 06:18:40;;;;;;;;;;;;;;;21.73;53.95;99653.53;4476405;32;33406;-78
2023/09/11 06:21:10;;;;;;;3.87;2.45;;;;;;;21.77;53.97;99646.28;4481564;32;34743;-78
2023/09/11 06:23:39;;;;;;;2.50;1.45;;;;;;;21.72;54.25;99649.19;4476516;32;33852;-78
2023/09/11 06:26:08;;;;;;;2.78;1.67;;;;;;;21.80;54.53;99646.09;4476604;32;34121;-78
2023/09/11 06:28:36;;;;;;;2.78;1.62;;;;;;;21.88;54.77;99654.38;4476645;32;33847;-78
2023/09/11 06:31:06;;;;;;;4.03;2.03;;;;;;;21.91;54.77;99650.72;4477569;32;34538;-79
2023/09/11 06:33:39;;;;;;;3.50;2.12;;;;;;;21.99;54.61;99651.09;4481945;32;33979;-78
2023/09/11 06:36:08;;;;;;;2.60;1.60;;;;;;;21.99;54.56;99656.38;4475411;32;33318;-79
2023/09/11 06:38:37;;;;;;;2.83;1.77;;;;;;;22.05;54.18;99650.72;4476264;32;34420;-78
2023/09/11 06:41:07;;;;;;;2.50;1.55;;;;;;;22.44;53.13;99664.22;4476798;32;34753;-79
2023/09/11 06:43:36;;;;;;;3.50;2.00;;;;;;;22.40;53.49;99655.66;4481602;32;33680;-78
2023/09/11 06:46:05;;;;;;;2.92;1.25;;;;;;;22.56;52.19;99656.38;4476733;32;33969;-77
2023/09/11 06:48:35;;;;;;;2.03;1.35;;;;;;;22.60;52.35;99662.31;4476328;32;33973;-77
2023/09/11 06:51:04;;;;;;;3.22;1.55;;;;;;;22.56;53.15;99660.81;4476303;32;32993;-78
2023/09/11 06:53:33;;;;;;;3.97;2.05;;;;;;;22.59;53.39;99660.59;4469700;32;34394;-79
2023/09/11 06:56:02;;;;;;;3.20;1.75;;;;;;;22.83;52.56;99658.19;4474287;32;33509;-79
2023/09/11 06:58:31;;;;;;;3.67;1.58;;;;;;;22.82;52.42;99671.53;4467690;32;33869;-77
2023/09/11 07:01:01;;;;;;;3.40;1.75;;;;;;;22.91;51.62;99673.59;4471235;32;34906;-79
2023/09/11 07:03:29;;;;;;;3.53;1.80;;;;;;;22.87;51.54;99666.78;4467462;32;33758;-79
2023/09/11 07:06:00;;;;;;;3.97;2.10;;;;;;;22.85;51.02;99669.53;4474404;32;33133;-78
2023/09/11 07:08:29;;;;;;;2.72;1.37;;;;;;;23.08;50.78;99661.94;4460061;32;34638;-78
2023/09/11 07:10:58;;;;;;;4.40;1.60;;;;;;;23.22;50.88;99661.88;4459930;32;34351;-79
2023/09/11 07:13:26;;;;;;;3.60;1.75;;;;;;;23.56;49.22;99667.59;4470722;32;33578;-78
2023/09/11 07:15:56;;;;;;;3.53;1.92;;;;;;;23.26;50.09;99668.66;4474860;32;33191;-79
2023/09/11 07:18:31;;;;;;;3.73;2.07;;;;;;;23.62;49.59;99669.78;4478944;32;35059;-78
2023/09/11 07:21:02;;;;;;;4.32;1.85;;;;;;;23.39;49.73;99672.19;4475886;32;33752;-78
2023/09/11 07:23:30;;;;;;;2.13;1.57;;;;;;;23.46;49.81;99672.63;4475872;32;35452;-78
2023/09/11 07:25:59;;;;;;;3.85;2.00;;;;;;;23.78;49.03;99678.44;4470053;32;33674;-78
2023/09/11 07:28:29;;;;;;;11.25;1.52;;;;;;;23.74;49.25;99678.75;4471886;32;33910;-79
2023/09/11 07:30:58;;;;;;;2.75;1.70;;;;;;;24.13;49.26;99680.44;4466243;32;33545;-78
2023/09/11 07:33:29;;;;;;;4.37;2.08;;;;;;;24.08;49.02;99684.38;4463771;32;34897;-78
2023/09/11 07:35:57;;;;;;;2.50;1.33;;;;;;;24.02;49.67;99683.00;4460312;32;33563;-79
2023/09/11 07:38:28;;;;;;;3.90;2.03;;;;;;;24.03;49.73;99682.88;4465860;32;33482;-78
2023/09/11 07:40:57;;;;;;;7.78;3.45;;;;;;;24.19;49.93;99687.13;4466392;32;34073;-78
2023/09/11 07:43:26;;;;;;;3.60;1.62;;;;;;;24.06;50.04;99682.66;4469969;32;34157;-77
2023/09/11 07:45:54;;;;;;;4.07;2.20;;;;;;;24.46;48.81;99687.87;4470295;32;33977;-79
2023/09/11 07:48:23;;;;;;;3.30;1.75;;;;;;;24.53;48.90;99685.62;4465411;32;34264;-79
2023/09/11 07:50:56;;;;;;;3.45;1.70;;;;;;;24.56;48.91;99685.41;4474976;32;33574;-78
2023/09/11 07:53:25;;;;;;;3.80;1.30;;;;;;;24.35;49.19;99686.91;4464793;32;33742;-78
2023/09/11 07:55:55;;;;;;;4.50;1.55;;;;;;;24.77;48.40;99680.37;4462111;32;33524;-79
2023/09/11 07:58:24;;;;;;;3.08;1.37;;;;;;;24.83;47.92;99679.91;4468173;32;33144;-78
2023/09/11 08:00:53;;;;;;;3.42;2.10;;;;;;;25.12;48.12;99684.91;4469479;32;33599;-79
2023/09/11 08:03:24;;;;;;;3.62;1.62;;;;;;;25.13;48.39;99679.50;4479163;32;34643;-78
2023/09/11 08:05:54;;;;;;;2.97;1.67;;;;;;;25.22;48.21;99677.97;4477864;32;34225;-77
2023/09/11 08:08:23;;;;;;;2.42;1.37;;;;;;;25.53;48.43;99676.53;4477335;32;33847;-79
2023/09/11 08:10:52;;;;;;;2.30;1.50;;;;;;;25.40;48.30;99675.78;4477777;32;34662;-78
2023/09/11 08:13:24;;;;;;;;;;;;;;;26.03;46.57;99678.12;4483783;32;33200;-78
2023/09/11 08:15:53;;;;;;;4.75;2.05;;;;;;;25.87;47.50;99681.13;4477736;32;34207;-78
2023/09/11 08:18:22;;;;;;;2.67;1.42;;;;;;;25.74;48.81;99673.22;4477441;32;33600;-78
2023/09/11 08:20:51;;;;;;;3.03;1.92;;;;;;;25.88;48.09;99680.16;4477550;32;33524;-77
2023/09/11 08:23:21;;;;;;;3.83;1.87;;;;;;;26.04;47.67;99674.50;4483270;32;33786;-78
2023/09/11 08:25:50;;;;;;;4.45;2.22;;;;;;;26.16;47.26;99679.69;4477634;32;33570;-79
2023/09/11 08:28:18;;;;;;;4.80;1.87;;;;;;;26.33;47.02;99682.84;4478319;32;33278;-79
2023/09/11 08:30:50;;;;;;;3.78;2.28;;;;;;;26.22;47.81;99681.03;4477552;32;34853;-79
2023/09/11 08:33:18;;;;;;;3.17;1.80;;;;;;;26.44;46.60;99672.22;4477255;32;34334;-78
2023/09/11 08:35:48;;;;;;;5.12;2.47;;;;;;;26.53;45.89;99668.84;4483385;32;34246;-79
2023/09/11 08:38:17;;;;;;;3.42;1.75;;;;;;;26.90;44.73;99667.69;4477527;32;33518;-79
2023/09/11 08:40:46;;;;;;;4.07;1.77;;;;;;;26.71;45.41;99663.84;4474583;32;33872;-77
2023/09/11 08:43:15;;;;;;;4.78;1.90;;;;;;;26.89;44.86;99660.66;4479933;32;34254;-77
2023/09/11 08:45:44;;;;;;;2.40;1.52;;;;;;;27.06;45.01;99662.78;4482644;32;34203;-77
2023/09/11 08:48:15;;;;;;;3.62;1.60;;;;;;;27.12;44.40;99661.44;4477659;32;33625;-79
2023/09/11 08:50:50;;;;;;;6.40;2.40;;;;;;;27.28;43.92;99658.37;4477363;32;33993;-78
2023/09/11 08:53:23;;;;;;;11.68;1.55;;;;;;;27.59;42.36;99653.97;4477160;32;33706;-78
2023/09/11 08:55:54;;;;;;;5.55;1.65;;;;;;;27.32;43.71;99657.16;4477135;32;33263;-78
2023/09/11 08:58:24;;;;;;;3.95;2.08;;;;;;;27.42;42.80;99655.41;4479847;32;32902;-78
2023/09/11 09:00:53;;;;;;;4.75;1.50;;;;;;;27.48;43.21;99651.41;4477079;32;33296;-78
2023/09/11 09:03:25;;;;;;;2.55;1.25;;;;;;;27.97;40.45;99653.41;4461447;32;33677;-78
2023/09/11 09:05:55;;;;;;;3.28;1.58;;;;;;;27.85;41.29;99654.44;4461106;32;33262;-78
2023/09/11 09:08:23;;;;;;;3.50;1.70;;;;;;;27.93;40.96;99645.78;4467363;32;34591;-77
2023/09/11 09:10:53;;;;;;;2.90;1.60;;;;;;;28.03;40.98;99647.53;4460956;32;33860;-78
2023/09/11 09:13:22;;;;;;;4.03;1.35;;;;;;;28.34;39.42;99644.84;4472170;32;33679;-77
2023/09/11 09:15:51;;;;;;;1.75;1.00;;;;;;;28.45;39.87;99644.78;4477417;32;32763;-79
2023/09/11 09:18:19;;;;;;;4.57;1.25;;;;;;;28.48;38.67;99652.50;4468916;32;33525;-79
2023/09/11 09:20:50;;;;;;;2.87;1.30;;;;;;;28.29;38.59;99650.59;4474024;32;33739;-78
2023/09/11 09:23:19;;;;;;;3.65;1.70;;;;;;;28.37;40.21;99647.25;4467837;32;33172;-78
2023/09/11 09:25:47;;;;;;;2.67;1.15;;;;;;;28.50;37.12;99642.53;4471454;32;34318;-79
2023/09/11 09:28:28;;;;;;;1.52;1.00;;;;;;;28.40;37.80;99638.97;4471061;32;33857;-78
2023/09/11 09:30:59;;;;;;;2.40;1.30;;;;;;;28.68;37.06;99637.41;4480868;32;34813;-77
2023/09/11 09:33:28;;;;;;;3.47;1.40;;;;;;;28.72;37.62;99644.13;4481117;32;34406;-77
2023/09/11 09:35:59;;;;;;;3.62;1.90;;;;;;;28.67;38.30;99638.38;4477244;32;33536;-79
2023/09/11 09:38:28;;;;;;;3.33;1.30;;;;;;;28.82;38.26;99640.63;4473247;32;33607;-77
2023/09/11 09:40:57;;;;;;;2.75;1.20;;;;;;;28.99;37.90;99629.25;4469074;32;34464;-77
2023/09/11 09:43:26;;;;;;;1.77;1.17;;;;;;;29.11;37.52;99636.19;4473744;32;33955;-77
2023/09/11 09:45:55;;;;;;;2.90;1.62;;;;;;;29.20;37.56;99637.19;4468234;32;33352;-77
2023/09/11 09:48:24;;;;;;;2.75;1.40;;;;;;;29.15;36.96;99631.41;4471742;32;33789;-78
2023/09/11 09:50:57;;;;;;;2.85;1.15;;;;;;;29.26;36.29;99625.06;4477022;32;34813;-78
2023/09/11 09:53:30;;;;;;;3.25;1.33;;;;;;;29.24;37.29;99633.25;4482239;32;34938;-78
2023/09/11 09:56:01;;;;;;;3.03;1.30;;;;;;;29.37;37.48;99622.25;4481551;32;34072;-77
2023/09/11 09:58:31;;;;;;;3.72;1.20;;;;;;;29.49;37.44;99618.44;4476614;32;34473;-79
2023/09/11 10:01:02;;;;;;;3.17;1.80;;;;;;;29.66;36.63;99624.91;4472562;32;34662;-77
2023/09/11 10:03:47;;;;;;;8.18;2.08;;;;;;;29.49;36.92;99618.44;4468537;32;34065;-78
2023/09/11 10:06:18;;;;;;;3.47;1.87;;;;;;;29.71;37.38;99619.13;4474314;32;33442;-79
2023/09/11 10:09:04;;;;;;;2.87;1.77;;;;;;;29.64;36.19;99612.66;4469166;32;32954;-78
2023/09/11 10:11:34;;;;;;;2.80;1.30;;;;;;;29.57;37.41;99617.72;4461177;32;33708;-79
2023/09/11 10:14:04;;;;;;;4.03;1.80;;;;;;;29.89;35.61;99611.19;4461302;32;33703;-77
2023/09/11 10:16:33;;;;;;;2.92;1.35;;;;;;;29.83;36.97;99612.63;4461117;32;33250;-78
2023/09/11 10:19:04;;;;;;;2.73;1.07;;;;;;;29.81;35.77;99605.75;4475554;32;33469;-78
2023/09/11 10:21:33;;;;;;;3.22;1.58;;;;;;;30.13;34.26;99603.50;4477104;32;34665;-79
2023/09/11 10:24:04;;;;;;;4.12;1.52;;;;;;;30.13;34.04;99603.50;4476864;32;33571;-79
2023/09/11 10:26:36;;;;;;;4.05;1.77;;;;;;;30.17;33.75;99599.53;4476599;32;33238;-78
2023/09/11 10:29:07;;;;;;;3.70;1.85;;;;;;;30.22;35.55;99595.56;4477033;32;33006;-78
2023/09/11 10:31:41;;;;;;;3.00;1.50;;;;;;;30.15;35.90;99580.09;4477370;32;34592;-79
2023/09/11 10:34:10;;;;;;;2.15;1.15;;;;;;;30.18;36.37;99585.16;4468942;32;35839;-78
2023/09/11 10:36:42;;;;;;;2.45;1.42;;;;;;;30.41;34.32;99574.09;4470044;32;33658;-78
2023/09/11 10:39:13;;;;;;;6.45;2.28;;;;;;;30.44;34.28;99573.78;4466798;32;33246;-78
2023/09/11 10:41:43;;;;;;;2.60;1.37;;;;;;;30.39;34.66;99579.56;4473761;32;34680;-77
2023/09/11 10:44:12;;;;;;;2.80;1.20;;;;;;;30.47;32.08;99577.97;4468479;32;34806;-78
2023/09/11 10:46:40;;;;;;;2.10;1.12;;;;;;;30.34;30.75;99575.66;4467307;32;32992;-76
2023/09/11 10:49:20;;;;;;;5.25;1.80;;;;;;;30.33;31.85;99571.31;4465784;32;33887;-79
2023/09/11 10:51:49;;;;;;;3.03;1.50;;;;;;;30.55;30.70;99562.03;4466248;32;33739;-78
2023/09/11 10:54:23;;;;;;;8.20;2.47;;;;;;;30.26;31.69;99564.88;4474551;32;34506;-79
2023/09/11 10:56:52;;;;;;;1.60;0.95;;;;;;;30.37;31.77;99572.69;4471546;32;33267;-79
2023/09/11 10:59:23;;;;;;;3.10;1.00;;;;;;;30.50;32.60;99557.13;4467889;32;33957;-79
2023/09/11 11:01:52;;;;;;;2.45;1.17;;;;;;;30.78;33.51;99568.63;4468673;32;33870;-78
2023/09/11 11:04:23;;;;;;;2.97;1.30;;;;;;;30.73;32.75;99559.34;4460795;32;33639;-77
2023/09/11 11:06:59;;;;;;;3.67;0.98;;;;;;;30.50;31.82;99558.97;4465538;32;33173;-78
2023/09/11 11:09:32;;;;;;;4.60;1.98;;;;;;;30.85;32.42;99560.81;4468637;32;33632;-77
2023/09/11 11:12:04;;;;;;;2.90;1.27;;;;;;;30.94;33.01;99553.72;4466881;32;34013;-78
2023/09/11 11:14:35;;;;;;;3.17;1.52;;;;;;;30.97;32.40;99554.22;4469521;32;33911;-78
2023/09/11 11:17:07;;;;;;;1.65;1.12;;;;;;;30.66;32.28;99551.06;4472634;32;33271;-77
2023/09/11 11:19:39;;;;;;;2.55;0.95;;;;;;;30.97;31.62;99543.50;4472618;32;33683;-78
2023/09/11 11:22:09;;;;;;;3.95;1.50;;;;;;;31.11;31.65;99546.63;4467737;32;34700;-78
2023/09/11 11:24:54;;;;;;;7.50;1.40;;;;;;;31.24;32.26;99549.75;4477340;32;34899;-79
2023/09/11 11:27:23;;;;;;;3.53;1.17;;;;;;;31.18;31.57;99553.06;4474739;32;33162;-79
2023/09/11 11:29:53;;;;;;;2.90;1.52;;;;;;;31.25;32.37;99551.44;4472414;32;34339;-78
2023/09/11 11:32:23;;;;;;;2.60;1.35;;;;;;;31.34;32.28;99555.00;4461257;32;34413;-79
2023/09/11 11:34:51;;;;;;;2.75;1.05;;;;;;;31.21;29.71;99547.38;4467758;32;34068;-78
2023/09/11 11:37:21;;;;;;;2.12;1.10;;;;;;;31.44;30.15;99545.91;4477883;32;33533;-79
2023/09/11 11:39:52;;;;;;;3.00;1.47;;;;;;;31.52;29.14;99541.59;4472582;32;33507;-80
2023/09/11 11:42:21;;;;;;;7.05;1.20;;;;;;;31.49;29.75;99534.69;4483487;32;32988;-77
2023/09/11 11:44:50;;;;;;;2.37;1.23;;;;;;;31.54;30.07;99531.56;4477659;32;34730;-78
2023/09/11 11:47:20;;;;;;;3.45;1.55;;;;;;;31.53;30.01;99519.97;4471866;32;33380;-79